Time;durP1;ratioP1;P1;durP2;ratioP2;P2;SDS_P1;SDS_P2;PMS_P1;PMS_P2;Temp;Humidity;BMP_temperature;BMP_pressure;BME280_temperature;BME280_humidity;BME280_pressure;Samples;Min_cycle;Max_cycle;Signal;HPM_P1;HPM_P2
2022/11/15 00:01:47;;;;;;;2.77;1.87;;;10.70;99.90;11.20;100477.00;;;;5017826;28;20252;-73
2022/11/15 00:04:13;;;;;;;0.63;0.63;;;10.70;99.90;11.40;100483.00;;;;5034123;28;20635;-73
2022/11/15 00:06:39;;;;;;;1.90;1.80;;;10.80;99.90;11.50;100526.00;;;;5033601;28;20184;-73
2022/11/15 00:09:14;;;;;;;3.10;2.90;;;10.90;99.90;11.50;100536.00;;;;5034061;28;20193;-73
2022/11/15 00:11:43;;;;;;;7.57;7.00;;;10.90;99.90;11.60;100535.00;;;;5033960;28;20276;-73
2022/11/15 00:14:09;;;;;;;0.97;0.97;;;11.00;99.90;11.60;100543.00;;;;5033908;28;20641;-73
2022/11/15 00:16:35;;;;;;;2.10;1.93;;;11.00;99.90;11.80;100532.00;;;;5017804;28;20364;-73
2022/11/15 00:19:01;;;;;;;0.60;0.60;;;11.10;99.90;11.80;100531.00;;;;5034316;28;20192;-73
2022/11/15 00:21:35;;;;;;;1.10;1.10;;;11.10;99.90;11.60;100521.00;;;;5033377;28;20199;-72
2022/11/15 00:24:02;;;;;;;2.73;2.53;;;11.10;99.90;11.60;100539.00;;;;5033943;28;20261;-72
2022/11/15 00:26:31;;;;;;;1.93;1.27;;;11.10;99.90;11.90;100533.00;;;;5017220;28;20190;-72
2022/11/15 00:28:57;;;;;;;1.63;1.53;;;11.30;99.90;11.70;100545.00;;;;5033827;28;20194;-72
2022/11/15 00:31:22;;;;;;;2.00;1.60;;;11.20;99.90;12.10;100489.00;;;;5034929;28;20230;-72
2022/11/15 00:33:51;;;;;;;2.97;2.87;;;11.30;99.90;12.00;100534.00;;;;5033554;28;20187;-72
2022/11/15 00:36:20;;;;;;;0.50;0.50;;;11.40;99.90;12.00;100505.00;;;;5033403;28;20186;-71
2022/11/15 00:38:46;;;;;;;0.30;0.30;;;11.40;99.90;12.00;100545.00;;;;5035091;28;20222;-71
2022/11/15 00:41:15;;;;;;;1.77;1.70;;;11.30;99.90;11.90;100540.00;;;;5033749;28;20199;-71
2022/11/15 00:43:43;;;;;;;0.30;0.30;;;11.40;99.90;12.10;100538.00;;;;5034412;28;20192;-72
2022/11/15 00:46:12;;;;;;;1.80;1.70;;;11.40;99.90;12.00;100543.00;;;;5033587;28;20272;-72
2022/11/15 00:48:38;;;;;;;2.33;1.93;;;11.50;99.90;12.00;100541.00;;;;5033312;28;20186;-72
2022/11/15 00:51:07;;;;;;;0.43;0.43;;;11.40;99.90;12.10;100540.00;;;;5033216;28;20214;-72
2022/11/15 00:53:38;;;;;;;2.50;1.43;;;11.40;99.90;12.00;100526.00;;;;5033115;28;20180;-72
2022/11/15 00:56:07;;;;;;;1.67;1.17;;;11.40;99.90;11.90;100529.00;;;;5033720;28;20183;-72
2022/11/15 00:58:39;;;;;;;1.10;1.10;;;11.40;99.90;11.70;100530.00;;;;5033213;28;20301;-72
2022/11/15 01:01:14;;;;;;;0.40;0.40;;;11.40;99.90;11.90;100473.00;;;;5033247;28;20235;-72
2022/11/15 01:03:41;;;;;;;2.97;2.47;;;11.30;99.90;11.70;100522.00;;;;5016709;28;20191;-72
2022/11/15 01:06:15;;;;;;;2.97;1.37;;;11.30;99.90;11.60;100521.00;;;;5033044;28;20184;-72
2022/11/15 01:08:41;;;;;;;0.37;0.37;;;11.20;99.90;11.70;100516.00;;;;5016412;28;20187;-72
2022/11/15 01:11:17;;;;;;;1.07;1.07;;;11.30;99.90;11.50;100505.00;;;;5016519;28;20236;-72
2022/11/15 01:13:51;;;;;;;1.43;1.33;;;11.20;99.90;11.90;100506.00;;;;5031716;28;20644;-72
2022/11/15 01:16:21;;;;;;;0.47;0.37;;;11.30;99.90;12.00;100536.00;;;;5031296;28;20188;-72
2022/11/15 01:18:47;;;;;;;1.80;1.70;;;11.30;99.90;11.70;100523.00;;;;5032579;28;20713;-72
2022/11/15 01:21:20;;;;;;;3.07;1.03;;;11.30;99.90;11.70;100537.00;;;;5029806;28;20184;-72
2022/11/15 01:23:53;;;;;;;0.57;0.57;;;11.30;99.90;11.70;100524.00;;;;5032865;28;20188;-72
2022/11/15 01:26:19;;;;;;;0.97;0.97;;;11.30;99.90;11.80;100510.00;;;;5016196;28;20184;-72
2022/11/15 01:28:47;;;;;;;0.30;0.30;;;11.30;99.90;11.70;100521.00;;;;5014101;28;20196;-72
2022/11/15 01:31:17;;;;;;;0.73;0.73;;;11.30;99.90;12.00;100538.00;;;;5028122;28;20194;-72
2022/11/15 01:33:44;;;;;;;1.07;1.03;;;11.40;99.90;11.90;100532.00;;;;5030473;28;20550;-72
2022/11/15 01:36:23;;;;;;;1.07;1.07;;;11.40;99.90;12.00;100534.00;;;;5032420;28;20553;-72
2022/11/15 01:38:57;;;;;;;1.47;1.43;;;11.40;99.90;12.10;100518.00;;;;5015994;28;20183;-73
2022/11/15 01:41:31;;;;;;;1.73;1.63;;;11.50;99.90;12.00;100530.00;;;;5032056;28;20202;-73
2022/11/15 01:44:42;;;;;;;2.47;2.10;;;11.60;99.90;12.20;100525.00;;;;5032352;28;20186;-73
2022/11/15 01:47:23;;;;;;;0.30;0.30;;;11.60;99.90;12.10;100522.00;;;;5026448;28;20208;-73
2022/11/15 01:50:08;;;;;;;0.90;0.90;;;11.60;99.90;12.10;100519.00;;;;5032311;28;20237;-73
2022/11/15 01:52:36;;;;;;;0.77;0.77;;;11.60;99.90;12.20;100525.00;;;;5032061;28;20275;-73
2022/11/15 01:55:28;;;;;;;2.00;1.90;;;11.60;99.90;12.40;100515.00;;;;5033489;28;20188;-71
2022/11/15 01:58:00;;;;;;;1.20;1.20;;;11.70;99.90;12.20;100520.00;;;;5032147;28;20259;-72
2022/11/15 02:00:28;;;;;;;0.77;0.77;;;11.70;99.90;12.60;100351.00;;;;5015636;28;20568;-73
2022/11/15 02:02:57;;;;;;;2.50;2.33;;;11.80;99.90;12.60;100453.00;;;;5031454;28;20212;-73
2022/11/15 02:05:26;;;;;;;1.17;1.03;;;11.80;99.90;12.40;100486.00;;;;5031912;28;20199;-73
2022/11/15 02:08:02;;;;;;;1.03;1.03;;;11.80;99.90;12.20;100493.00;;;;5032053;28;20277;-73
2022/11/15 02:10:33;;;;;;;0.53;0.53;;;11.70;99.90;12.20;100488.00;;;;5031632;28;20193;-73
2022/11/15 02:13:10;;;;;;;1.30;1.17;;;11.70;99.90;12.30;100445.00;;;;5031993;28;20240;-73
2022/11/15 02:16:15;;;;;;;0.67;0.53;;;11.70;99.90;12.10;100501.00;;;;5031793;28;20199;-73
2022/11/15 02:19:23;;;;;;;0.90;0.90;;;11.70;99.90;12.10;100496.00;;;;5053251;28;20593;-73
2022/11/15 02:22:41;;;;;;;0.80;0.80;;;11.70;99.90;12.30;100498.00;;;;5011577;28;20266;-72
2022/11/15 02:26:12;;;;;;;0.30;0.30;;;11.70;99.90;12.50;100494.00;;;;4950377;29;20231;-72
2022/11/15 02:29:06;;;;;;;0.30;0.30;;;11.80;99.90;12.80;100487.00;;;;4952578;28;20250;-72
2022/11/15 02:32:08;;;;;;;5.00;3.30;;;11.90;99.90;12.30;100476.00;;;;4936238;29;20259;-73
2022/11/15 02:35:12;;;;;;;0.30;0.30;;;11.90;99.90;12.50;100484.00;;;;4952537;29;20655;-72
2022/11/15 02:38:22;;;;;;;4.90;2.57;;;11.80;99.90;12.30;100481.00;;;;4927212;29;20204;-72
2022/11/15 02:41:32;;;;;;;1.43;1.33;;;11.80;99.90;12.30;100456.00;;;;4960795;28;20201;-72
2022/11/15 02:44:30;;;;;;;3.23;2.97;;;11.90;99.90;12.30;100481.00;;;;5031308;28;20197;-73
2022/11/15 02:47:21;;;;;;;0.93;0.93;;;11.80;99.90;12.30;100474.00;;;;5015023;28;20189;-73
2022/11/15 02:50:14;;;;;;;0.93;0.93;;;11.80;99.90;12.60;100417.00;;;;5023992;28;20267;-73
2022/11/15 02:52:51;;;;;;;0.63;0.63;;;11.90;99.90;12.20;100465.00;;;;5018988;28;20246;-72
2022/11/15 02:55:41;;;;;;;0.53;0.53;;;11.80;99.90;12.70;100446.00;;;;5031585;28;20268;-73
2022/11/15 02:59:19;;;;;;;0.57;0.57;;;11.80;99.90;12.70;100441.00;;;;5032769;28;20188;-73
2022/11/15 03:02:57;;;;;;;0.30;0.30;;;11.90;99.90;12.40;100450.00;;;;5027239;28;20224;-72
2022/11/15 03:05:37;;;;;;;0.57;0.57;;;11.90;99.90;12.40;100396.00;;;;5012314;28;20274;-72
2022/11/15 03:08:31;;;;;;;0.30;0.30;;;11.80;99.90;12.30;100442.00;;;;5025510;28;20722;-72
2022/11/15 03:11:19;;;;;;;1.33;1.03;;;11.70;99.90;12.60;100395.00;;;;5034927;28;20182;-72
2022/11/15 03:14:03;;;;;;;0.40;0.40;;;11.80;99.90;12.50;100446.00;;;;5025698;28;20181;-72
2022/11/15 03:17:25;;;;;;;1.63;1.53;;;11.80;99.90;12.60;100456.00;;;;5018998;28;20215;-72
2022/11/15 03:20:10;;;;;;;0.80;0.80;;;11.80;99.90;12.40;100448.00;;;;5031795;28;20197;-72
2022/11/15 03:22:52;;;;;;;2.27;1.30;;;11.70;99.90;12.30;100457.00;;;;5018550;28;20205;-72
2022/11/15 03:25:28;;;;;;;1.40;1.30;;;11.80;99.90;12.20;100451.00;;;;5034806;28;20220;-72
2022/11/15 03:28:08;;;;;;;0.40;0.40;;;11.70;99.90;12.30;100473.00;;;;5009890;28;20207;-72
2022/11/15 03:30:39;;;;;;;0.60;0.60;;;11.70;99.90;12.20;100453.00;;;;5026586;28;20213;-72
2022/11/15 03:33:11;;;;;;;1.07;1.03;;;11.70;99.90;12.20;100470.00;;;;5034998;28;20201;-73
2022/11/15 03:35:44;;;;;;;0.70;0.70;;;11.70;99.90;12.00;100453.00;;;;5034652;28;20181;-72
2022/11/15 03:38:41;;;;;;;0.90;0.90;;;11.60;99.90;12.20;100486.00;;;;5018034;28;20282;-72
2022/11/15 03:41:20;;;;;;;1.70;1.60;;;11.70;99.90;12.00;100479.00;;;;5009644;28;20197;-72
2022/11/15 03:44:35;;;;;;;0.53;0.53;;;11.60;99.90;12.20;100477.00;;;;5017967;28;20657;-74
2022/11/15 03:47:17;;;;;;;0.40;0.40;;;11.60;99.90;12.20;100471.00;;;;5034431;28;20333;-74
2022/11/15 03:49:52;;;;;;;1.53;1.07;;;11.60;99.90;11.70;100482.00;;;;5034387;28;20202;-73
2022/11/15 03:52:25;;;;;;;0.30;0.30;;;11.50;99.90;12.10;100476.00;;;;5035333;28;20195;-73
2022/11/15 03:55:00;;;;;;;0.53;0.53;;;11.60;99.90;12.00;100474.00;;;;5034373;28;20175;-72
2022/11/15 03:57:34;;;;;;;0.40;0.40;;;11.60;99.90;11.90;100452.00;;;;5034244;28;20196;-73
2022/11/15 04:00:08;;;;;;;0.27;0.27;;;11.50;99.90;11.80;100464.00;;;;5018463;28;20201;-73
2022/11/15 04:02:46;;;;;;;1.60;1.27;;;11.40;99.90;11.70;100466.00;;;;5033779;28;20222;-73
2022/11/15 04:05:17;;;;;;;0.90;0.90;;;11.40;99.90;11.70;100450.00;;;;5034602;28;20341;-72
2022/11/15 04:07:54;;;;;;;0.20;0.20;;;11.40;99.90;12.20;100456.00;;;;5017644;28;20242;-72
2022/11/15 04:10:26;;;;;;;0.50;0.50;;;11.50;99.90;12.00;100441.00;;;;5022053;28;20181;-72
2022/11/15 04:12:57;;;;;;;0.30;0.30;;;11.40;99.90;11.90;100401.00;;;;5014830;28;20189;-72
2022/11/15 04:15:32;;;;;;;0.30;0.30;;;11.50;99.90;11.90;100434.00;;;;5018010;28;20188;-72
2022/11/15 04:18:04;;;;;;;0.53;0.53;;;11.50;99.90;12.10;100448.00;;;;5034401;28;20185;-73
2022/11/15 04:26:21;;;;;;;0.57;0.57;;;11.40;99.90;12.20;100452.00;;;;5034137;28;20241;-72
2022/11/15 04:31:49;;;;;;;1.70;1.13;;;11.40;99.90;11.80;100445.00;;;;5033469;28;20588;-73
2022/11/15 04:34:26;;;;;;;0.73;0.73;;;11.30;99.90;11.90;100438.00;;;;5032816;28;20182;-72
2022/11/15 04:37:12;;;;;;;0.30;0.30;;;11.30;99.90;12.30;100458.00;;;;5025112;28;20176;-72
2022/11/15 04:39:43;;;;;;;0.40;0.40;;;11.40;99.90;12.10;100447.00;;;;5032942;28;20188;-72
2022/11/15 04:42:19;;;;;;;0.30;0.30;;;11.50;99.90;12.00;100455.00;;;;5016420;28;20626;-72
2022/11/15 04:44:56;;;;;;;0.40;0.40;;;11.40;99.90;11.80;100438.00;;;;5022207;28;20530;-72
2022/11/15 04:47:29;;;;;;;0.30;0.30;;;11.40;99.90;11.80;100439.00;;;;5031707;28;20179;-72
2022/11/15 04:49:55;;;;;;;1.43;1.33;;;11.30;99.90;11.80;100454.00;;;;5033638;28;20277;-72
2022/11/15 04:52:32;;;;;;;0.83;0.83;;;11.30;99.90;11.80;100450.00;;;;5033258;28;20266;-73
2022/11/15 04:55:06;;;;;;;0.40;0.40;;;11.30;99.90;11.90;100449.00;;;;5033748;28;20195;-73
2022/11/15 04:57:38;;;;;;;0.33;0.33;;;11.30;99.90;11.90;100448.00;;;;5032741;28;20183;-73
2022/11/15 05:00:15;;;;;;;0.80;0.80;;;11.30;99.90;12.30;100288.00;;;;5034785;28;20191;-73
2022/11/15 05:05:34;;;;;;;1.07;1.07;;;11.30;99.90;11.90;100435.00;;;;5030106;28;20195;-73
2022/11/15 05:08:00;;;;;;;1.47;1.27;;;11.30;99.90;12.00;100427.00;;;;5033029;28;20185;-73
2022/11/15 05:10:25;;;;;;;3.23;1.67;;;11.30;99.90;11.80;100422.00;;;;5032587;28;20184;-72
2022/11/15 05:12:51;;;;;;;0.43;0.43;;;11.20;99.90;11.70;100417.00;;;;5032769;28;20185;-72
2022/11/15 05:15:17;;;;;;;0.77;0.77;;;11.10;99.90;11.80;100421.00;;;;5034397;28;20188;-72
2022/11/15 05:17:43;;;;;;;0.30;0.30;;;11.10;99.90;11.50;100374.00;;;;5032677;28;20181;-73
2022/11/15 05:20:10;;;;;;;1.23;1.00;;;11.00;99.90;11.40;100425.00;;;;5026272;28;20180;-72
2022/11/15 05:22:36;;;;;;;1.10;1.07;;;11.00;99.90;11.50;100417.00;;;;5028219;28;20212;-73
2022/11/15 05:25:06;;;;;;;1.13;1.03;;;11.00;99.90;11.60;100430.00;;;;5015988;28;20290;-72
2022/11/15 05:27:37;;;;;;;0.43;0.43;;;10.90;99.90;11.70;100412.00;;;;5032778;28;20196;-73
2022/11/15 05:30:06;;;;;;;0.93;0.93;;;10.90;99.90;11.50;100430.00;;;;5016362;28;20191;-72
2022/11/15 05:32:40;;;;;;;0.30;0.30;;;10.90;99.90;11.20;100441.00;;;;5030062;28;20216;-73
2022/11/15 05:35:13;;;;;;;0.27;0.27;;;10.80;99.90;11.20;100434.00;;;;5032888;28;20186;-72
2022/11/15 05:37:44;;;;;;;0.50;0.50;;;10.70;99.90;11.10;100444.00;;;;5007993;28;20245;-73
2022/11/15 05:40:13;;;;;;;0.50;0.50;;;10.70;99.90;11.20;100435.00;;;;5033619;28;20207;-72
2022/11/15 05:42:39;;;;;;;0.20;0.20;;;10.60;99.90;11.20;100437.00;;;;5033166;28;20208;-72
2022/11/15 05:45:08;;;;;;;0.70;0.40;;;10.60;99.90;11.10;100426.00;;;;5032635;28;20265;-72
2022/11/15 05:47:39;;;;;;;0.30;0.30;;;10.60;99.90;11.00;100432.00;;;;5032586;28;20193;-73
2022/11/15 05:50:09;;;;;;;0.70;0.70;;;10.50;99.90;11.20;100440.00;;;;5033495;28;20195;-73
2022/11/15 05:52:37;;;;;;;0.30;0.30;;;10.50;99.90;11.00;100444.00;;;;5032347;28;20185;-73
2022/11/15 05:55:09;;;;;;;0.40;0.40;;;10.50;99.90;11.10;100418.00;;;;5033132;28;20182;-73
2022/11/15 05:57:36;;;;;;;0.80;0.40;;;10.50;99.90;11.00;100429.00;;;;5016032;28;20193;-72
2022/11/15 06:00:04;;;;;;;0.40;0.40;;;10.40;99.90;10.90;100434.00;;;;5033283;28;20175;-72
2022/11/15 06:02:30;;;;;;;0.30;0.30;;;10.30;99.90;11.00;100433.00;;;;5030114;28;20209;-73
2022/11/15 06:04:59;;;;;;;0.40;0.40;;;10.30;99.90;10.90;100442.00;;;;5032209;28;20198;-73
2022/11/15 06:07:29;;;;;;;1.23;0.93;;;10.40;99.90;11.10;100445.00;;;;5032166;28;20685;-73
2022/11/15 06:09:59;;;;;;;0.37;0.37;;;10.40;99.90;11.00;100435.00;;;;5022092;28;20670;-72
2022/11/15 06:12:28;;;;;;;0.83;0.83;;;10.40;99.90;10.90;100428.00;;;;5030554;28;20183;-72
2022/11/15 06:15:05;;;;;;;0.33;0.33;;;10.30;99.90;11.30;100441.00;;;;5015603;28;20626;-72
2022/11/15 06:17:31;;;;;;;0.60;0.60;;;10.50;99.90;11.00;100427.00;;;;5013315;28;20277;-72
2022/11/15 06:20:00;;;;;;;0.40;0.40;;;10.40;99.90;10.80;100437.00;;;;5015441;28;20269;-73
2022/11/15 06:22:26;;;;;;;1.27;1.23;;;10.30;99.90;10.90;100435.00;;;;5031805;28;20550;-72
2022/11/15 06:24:52;;;;;;;0.30;0.30;;;10.30;99.90;10.90;100450.00;;;;5032731;28;20213;-72
2022/11/15 06:27:17;;;;;;;0.70;0.70;;;10.30;99.90;10.70;100447.00;;;;5031623;28;20187;-72
2022/11/15 06:29:43;;;;;;;0.50;0.50;;;10.30;99.90;10.70;100441.00;;;;5031496;28;20308;-72
2022/11/15 06:32:09;;;;;;;0.40;0.40;;;10.30;99.90;10.90;100437.00;;;;5031430;28;20560;-72
2022/11/15 06:34:38;;;;;;;0.60;0.60;;;10.30;99.90;10.90;100445.00;;;;5032633;28;20209;-72
2022/11/15 06:37:04;;;;;;;0.30;0.30;;;10.40;99.90;10.60;100421.00;;;;5031979;28;20175;-72
2022/11/15 06:39:32;;;;;;;1.23;1.23;;;10.30;99.90;10.60;100413.00;;;;5029441;28;20183;-72
2022/11/15 06:41:58;;;;;;;0.30;0.30;;;10.30;99.90;11.00;100425.00;;;;5028580;28;20206;-73
2022/11/15 06:44:27;;;;;;;1.53;0.87;;;10.30;99.90;10.80;100447.00;;;;5032887;28;20265;-72
2022/11/15 06:46:55;;;;;;;0.30;0.30;;;10.30;99.90;11.00;100431.00;;;;5031466;28;20193;-72
2022/11/15 06:49:21;;;;;;;0.27;0.27;;;10.40;99.90;10.70;100436.00;;;;5031539;28;20223;-72
2022/11/15 06:51:53;;;;;;;0.43;0.43;;;10.30;99.90;10.80;100409.00;;;;5031517;28;20218;-72
2022/11/15 06:54:22;;;;;;;0.50;0.50;;;10.30;99.90;10.80;100418.00;;;;5033826;28;20186;-72
2022/11/15 06:56:48;;;;;;;0.73;0.73;;;10.30;99.90;10.80;100410.00;;;;5036395;28;20631;-72
2022/11/15 06:59:13;;;;;;;0.40;0.40;;;10.30;99.90;10.50;100429.00;;;;5019222;28;20212;-72
2022/11/15 07:01:40;;;;;;;1.90;0.87;;;10.20;99.90;10.60;100433.00;;;;5032355;28;20219;-72
2022/11/15 07:04:05;;;;;;;0.30;0.30;;;10.20;99.90;10.60;100435.00;;;;5036532;28;20194;-72
2022/11/15 07:06:31;;;;;;;0.40;0.40;;;10.10;99.90;10.70;100438.00;;;;5035273;28;20189;-72
2022/11/15 07:08:57;;;;;;;0.23;0.23;;;10.20;99.90;11.00;100437.00;;;;5035181;28;20184;-72
2022/11/15 07:11:33;;;;;;;0.80;0.80;;;10.30;99.90;10.90;100419.00;;;;5035010;28;20190;-72
2022/11/15 07:14:00;;;;;;;0.30;0.30;;;10.30;99.90;10.90;100428.00;;;;5035137;28;20174;-72
2022/11/15 07:16:26;;;;;;;0.30;0.30;;;10.30;99.90;10.80;100427.00;;;;5035003;28;20193;-72
2022/11/15 07:18:52;;;;;;;0.30;0.30;;;10.30;99.90;10.60;100426.00;;;;5018535;28;20547;-72
2022/11/15 07:21:44;;;;;;;0.40;0.40;;;10.20;99.90;10.60;100423.00;;;;5018301;28;20186;-72
2022/11/15 07:24:10;;;;;;;1.73;1.23;;;10.20;99.90;10.90;100415.00;;;;5018468;28;20190;-72
2022/11/15 07:26:39;;;;;;;0.40;0.40;;;10.30;99.90;11.00;100402.00;;;;5036104;28;20197;-73
2022/11/15 07:29:05;;;;;;;0.50;0.50;;;10.30;99.90;10.80;100370.00;;;;5035004;28;20245;-73
2022/11/15 07:31:40;;;;;;;0.80;0.80;;;10.30;99.90;10.70;100388.00;;;;5018182;28;20247;-73
2022/11/15 07:34:08;;;;;;;0.40;0.40;;;10.30;99.90;10.50;100428.00;;;;5018303;28;20193;-72
2022/11/15 07:36:37;;;;;;;1.70;1.60;;;10.10;99.90;10.50;100432.00;;;;5035874;28;20188;-73
2022/11/15 07:39:05;;;;;;;3.60;3.30;;;10.10;99.90;10.70;100422.00;;;;5018236;28;20278;-73
2022/11/15 07:41:31;;;;;;;0.40;0.40;;;10.20;99.90;10.60;100365.00;;;;5034639;28;20218;-72
2022/11/15 07:43:57;;;;;;;0.93;0.93;;;10.20;99.90;10.70;100434.00;;;;5034612;28;20302;-72
2022/11/15 07:46:29;;;;;;;1.27;1.17;;;10.20;99.90;10.70;100386.00;;;;5034362;28;20303;-72
2022/11/15 07:49:09;;;;;;;0.30;0.30;;;10.20;99.90;10.80;100420.00;;;;5034457;28;20187;-72
2022/11/15 07:51:37;;;;;;;0.30;0.30;;;10.30;99.90;10.70;100353.00;;;;5034421;28;20284;-73
2022/11/15 07:54:03;;;;;;;0.63;0.63;;;10.20;99.90;10.90;100390.00;;;;5034584;28;20191;-73
2022/11/15 07:56:32;;;;;;;1.17;1.07;;;10.20;99.90;10.90;100404.00;;;;5034543;28;20271;-72
2022/11/15 07:58:59;;;;;;;0.70;0.63;;;10.30;99.90;10.80;100385.00;;;;5034201;28;20648;-73
2022/11/15 08:01:36;;;;;;;1.83;1.30;;;10.30;99.90;10.60;100391.00;;;;5034153;28;20234;-73
2022/11/15 08:04:05;;;;;;;0.93;0.60;;;10.30;99.90;10.90;100392.00;;;;5035486;28;20201;-73
2022/11/15 08:06:51;;;;;;;1.30;1.00;;;10.40;99.90;11.10;100382.00;;;;5034086;28;20218;-72
2022/11/15 08:09:17;;;;;;;1.07;1.00;;;10.50;99.90;11.10;100376.00;;;;5033763;28;20197;-72
2022/11/15 08:11:55;;;;;;;0.70;0.70;;;10.60;99.90;11.20;100308.00;;;;5017227;28;20973;-72
2022/11/15 08:14:28;;;;;;;3.70;1.43;;;10.70;99.90;11.00;100359.00;;;;5017677;28;20283;-72
2022/11/15 08:17:21;;;;;;;3.07;2.67;;;10.70;99.90;11.10;100351.00;;;;5033927;28;20191;-71
2022/11/15 08:19:50;;;;;;;0.70;0.70;;;10.90;99.90;11.70;100355.00;;;;5024297;28;20203;-72
2022/11/15 08:22:16;;;;;;;0.93;0.90;;;10.90;99.90;11.50;100354.00;;;;5015478;28;20648;-72
2022/11/15 08:24:44;;;;;;;0.50;0.50;;;11.00;99.90;11.20;100339.00;;;;5034234;28;20538;-72
2022/11/15 08:27:31;;;;;;;1.63;1.53;;;10.90;99.90;11.40;100295.00;;;;5033669;28;20214;-72
2022/11/15 08:29:57;;;;;;;0.50;0.50;;;11.00;99.90;11.70;100359.00;;;;5033904;28;20653;-72
2022/11/15 08:32:32;;;;;;;0.80;0.80;;;11.00;99.90;11.50;100365.00;;;;5032267;28;20228;-72
2022/11/15 08:35:23;;;;;;;1.67;1.57;;;11.10;99.90;11.30;100353.00;;;;5033605;28;20217;-71
2022/11/15 08:37:49;;;;;;;1.03;0.83;;;11.00;99.90;11.50;100358.00;;;;5012807;28;20206;-71
2022/11/15 08:40:16;;;;;;;2.27;1.20;;;11.20;99.90;11.40;100357.00;;;;5022493;28;20199;-72
2022/11/15 08:43:02;;;;;;;0.37;0.37;;;11.10;99.90;11.30;100346.00;;;;5030836;28;20207;-71
2022/11/15 08:45:29;;;;;;;0.83;0.70;;;11.00;99.90;11.70;100345.00;;;;5033537;28;20646;-71
2022/11/15 08:48:08;;;;;;;1.17;0.90;;;11.20;99.90;12.00;100303.00;;;;5033078;28;20188;-72
2022/11/15 08:50:37;;;;;;;0.60;0.60;;;11.40;99.90;11.80;100277.00;;;;5019471;28;20279;-71
2022/11/15 08:53:08;;;;;;;0.30;0.30;;;11.30;99.90;11.80;100294.00;;;;5030166;28;20260;-71
2022/11/15 08:55:37;;;;;;;1.00;0.80;;;11.40;99.90;11.90;100286.00;;;;5014645;28;20196;-72
2022/11/15 08:58:07;;;;;;;1.30;0.50;;;11.50;99.90;12.10;100334.00;;;;5030886;28;20181;-71
2022/11/15 09:00:59;;;;;;;0.80;0.80;;;11.50;99.90;11.90;100336.00;;;;5034509;28;20192;-71
2022/11/15 09:03:27;;;;;;;1.50;1.40;;;11.60;99.90;12.60;100268.00;;;;5018644;28;20207;-71
2022/11/15 09:06:16;;;;;;;0.30;0.30;;;11.90;99.90;12.80;100333.00;;;;5016277;28;20181;-72
2022/11/15 09:09:08;;;;;;;1.43;0.70;;;12.30;99.90;12.90;100323.00;;;;5027279;28;20276;-71
2022/11/15 09:11:37;;;;;;;0.73;0.73;;;12.50;99.90;13.10;100335.00;;;;5043178;28;20281;-77
2022/11/15 09:14:10;;;;;;;0.30;0.30;;;12.70;99.90;12.90;100325.00;;;;5016185;28;20285;-70
2022/11/15 09:16:36;;;;;;;0.20;0.20;;;12.70;99.90;12.80;100270.00;;;;5031260;28;20196;-72
2022/11/15 09:19:14;;;;;;;1.47;1.43;;;12.50;99.90;12.60;100299.00;;;;5027079;28;20184;-72
2022/11/15 09:21:46;;;;;;;0.97;0.80;;;12.40;99.90;12.10;100304.00;;;;5032738;28;20210;-72
2022/11/15 09:24:12;;;;;;;0.83;0.53;;;12.10;99.90;12.60;100323.00;;;;5032655;28;20182;-69
2022/11/15 09:26:41;;;;;;;1.80;1.17;;;12.20;99.90;12.10;100314.00;;;;5032802;28;20199;-76
2022/11/15 09:29:10;;;;;;;0.40;0.40;;;12.10;99.90;12.20;100300.00;;;;5032428;28;20221;-73
2022/11/15 09:31:52;;;;;;;0.60;0.60;;;12.00;99.90;12.60;100313.00;;;;5032148;28;20575;-71
2022/11/15 09:34:21;;;;;;;0.70;0.70;;;12.10;99.90;12.50;100310.00;;;;5032417;28;20185;-69
2022/11/15 09:37:01;;;;;;;0.30;0.30;;;12.20;99.90;12.80;100312.00;;;;5032619;28;20276;-68
2022/11/15 09:39:30;;;;;;;0.93;0.63;;;12.20;99.90;12.60;100304.00;;;;5020443;28;20193;-75
2022/11/15 09:41:58;;;;;;;0.97;0.90;;;12.30;99.90;13.20;100269.00;;;;5032367;28;20298;-71
2022/11/15 09:44:54;;;;;;;0.67;0.43;;;12.40;99.90;13.30;100274.00;;;;5033390;28;20236;-69
2022/11/15 09:47:38;;;;;;;0.63;0.63;;;12.70;99.90;13.90;100326.00;;;;5033106;28;20192;-75
2022/11/15 09:50:17;;;;;;;8.90;1.80;;;13.10;99.90;13.80;100332.00;;;;5030464;28;20681;-68
2022/11/15 09:52:45;;;;;;;0.40;0.40;;;13.30;99.90;13.90;100333.00;;;;5012356;28;20184;-69
2022/11/15 09:55:21;;;;;;;3.93;0.77;;;13.40;99.90;14.30;100345.00;;;;5026652;28;20184;-73
2022/11/15 09:58:16;;;;;;;0.60;0.60;;;13.70;99.90;14.20;100330.00;;;;5029597;28;20287;-73
2022/11/15 10:00:48;;;;;;;1.73;0.80;;;13.60;99.90;13.50;100309.00;;;;5017758;28;20190;-74
2022/11/15 10:03:52;;;;;;;4.43;1.20;;;13.10;99.90;13.70;100253.00;;;;5008177;28;20710;-68
2022/11/15 10:06:26;;;;;;;12.33;1.13;;;13.30;99.90;13.70;100293.00;;;;5035319;28;20183;-71
2022/11/15 10:09:12;;;;;;;0.30;0.30;;;13.20;99.90;13.90;100301.00;;;;5010358;28;20196;-70
2022/11/15 10:11:54;;;;;;;0.20;0.20;;;13.30;99.90;13.70;100283.00;;;;5027900;28;20713;-74
2022/11/15 10:14:27;;;;;;;0.80;0.80;;;13.20;99.90;13.60;100228.00;;;;5015758;28;20237;-72
2022/11/15 10:17:31;;;;;;;0.77;0.40;;;13.10;99.90;13.20;100285.00;;;;5015344;28;20270;-71
2022/11/15 10:20:14;;;;;;;1.10;1.00;;;12.90;99.90;13.30;100286.00;;;;4981404;28;20191;-74
2022/11/15 10:33:30;;;;;;;0.27;0.27;;;12.70;99.90;13.40;100244.00;;;;5061762;28;21097;-69
2022/11/15 10:36:17;;;;;;;0.63;0.63;;;12.90;99.90;13.90;100247.00;;;;5050323;28;20190;-72
2022/11/15 10:39:04;;;;;;;0.73;0.40;;;13.10;99.90;13.70;100270.00;;;;5048739;28;20206;-71
2022/11/15 10:41:36;;;;;;;3.07;0.90;;;13.30;99.90;14.20;100249.00;;;;5028761;28;20615;-72
2022/11/15 10:44:13;;;;;;;0.23;0.23;;;13.70;99.90;14.50;100255.00;;;;5047592;28;20215;-68
2022/11/15 10:46:41;;;;;;;0.77;0.43;;;13.90;99.90;14.80;100253.00;;;;5048323;28;20182;-70
2022/11/15 10:49:27;;;;;;;4.13;0.93;;;14.10;99.90;14.60;100244.00;;;;5048759;28;20186;-67
2022/11/15 10:52:01;;;;;;;0.40;0.40;;;14.00;99.90;14.50;100237.00;;;;5071147;28;20241;-66
2022/11/15 10:54:44;;;;;;;2.10;0.77;;;14.10;99.90;13.90;100235.00;;;;5050022;28;20184;-66
2022/11/15 10:57:32;;;;;;;0.20;0.20;;;13.70;99.90;14.40;100217.00;;;;5049550;28;20661;-72
2022/11/15 11:00:27;;;;;;;0.47;0.47;;;13.60;99.90;14.80;100228.00;;;;5076839;28;20183;-70
2022/11/15 11:03:05;;;;;;;0.40;0.40;;;13.90;99.90;14.60;100221.00;;;;5039711;28;20727;-71
2022/11/15 11:05:36;;;;;;;0.40;0.40;;;13.90;99.90;14.30;100223.00;;;;5044754;28;20215;-68
2022/11/15 11:08:11;;;;;;;0.40;0.40;;;13.80;99.90;13.80;100203.00;;;;5081870;28;20208;-68
2022/11/15 11:10:38;;;;;;;1.10;0.60;;;13.40;99.90;13.90;100198.00;;;;5049424;28;20520;-68
2022/11/15 11:13:25;;;;;;;0.40;0.40;;;13.40;99.90;13.80;100200.00;;;;5076847;28;20535;-67
2022/11/15 11:16:14;;;;;;;0.30;0.30;;;13.30;99.90;14.10;100135.00;;;;5037994;28;20210;-67
2022/11/15 11:19:05;;;;;;;0.43;0.43;;;13.40;99.90;13.90;100164.00;;;;5047595;28;20190;-69
2022/11/15 11:22:16;;;;;;;0.40;0.40;;;13.40;99.90;14.20;100133.00;;;;5059140;28;20227;-70
2022/11/15 11:25:18;;;;;;;0.47;0.47;;;13.60;99.90;14.80;100180.00;;;;5046235;28;21067;-69
2022/11/15 11:32:04;;;;;;;0.30;0.30;;;14.40;99.90;15.30;100173.00;;;;5043562;28;20254;-70
2022/11/15 11:34:59;;;;;;;2.43;0.53;;;14.30;99.90;14.20;100172.00;;;;5042602;28;20524;-68
2022/11/15 11:37:38;;;;;;;3.40;1.13;;;14.10;99.90;15.10;100167.00;;;;5044052;28;21167;-72
2022/11/15 11:40:51;;;;;;;2.50;0.90;;;14.00;99.90;14.30;100163.00;;;;5078319;28;20192;-67
2022/11/15 11:43:48;;;;;;;3.30;1.90;;;13.70;99.90;14.30;100160.00;;;;5041313;28;20665;-67
2022/11/15 11:47:15;;;;;;;0.30;0.30;;;13.80;99.90;14.00;100148.00;;;;5026115;28;20283;-68
2022/11/15 11:50:15;;;;;;;0.40;0.40;;;13.70;99.90;14.30;100155.00;;;;5028758;28;20204;-71
2022/11/15 11:53:15;;;;;;;0.60;0.53;;;13.80;99.90;14.00;100141.00;;;;5041906;28;20227;-71
2022/11/15 11:55:41;;;;;;;1.27;0.50;;;13.70;99.90;14.80;100140.00;;;;5067269;28;20664;-73